createdAt,value
2023-05-24T00:02:21.204Z,71.88
2023-05-24T00:04:49.662Z,71.76
2023-05-24T00:07:19.100Z,71.64
2023-05-24T00:09:45.844Z,71.05
2023-05-24T00:12:15.724Z,70.68
2023-05-24T00:14:45.059Z,70.26
2023-05-24T00:17:12.939Z,69.99
2023-05-24T00:19:43.011Z,70.25
2023-05-24T00:22:14.817Z,70.64
2023-05-24T00:24:41.731Z,70.82
2023-05-24T00:27:11.977Z,70.97
2023-05-24T00:29:38.789Z,70.78
2023-05-24T00:32:08.979Z,70.76
2023-05-24T00:34:40.512Z,70.96
2023-05-24T00:37:09.656Z,70.82
2023-05-24T00:39:36.370Z,71.43
2023-05-24T00:42:03.495Z,71.06
2023-05-24T00:44:33.035Z,70.76
2023-05-24T00:47:02.371Z,70.55
2023-05-24T00:49:31.719Z,70.74
2023-05-24T00:51:58.731Z,70.46
2023-05-24T00:54:28.837Z,70.80
2023-05-24T00:56:56.686Z,70.95
2023-05-24T00:59:26.904Z,71.23
2023-05-24T01:01:56.261Z,71.01
2023-05-24T01:04:26.030Z,70.95
2023-05-24T01:07:17.225Z,71.02
2023-05-24T01:10:00.217Z,71.00
2023-05-24T01:12:37.451Z,71.12
2023-05-24T01:15:22.762Z,71.36
2023-05-24T01:18:13.992Z,71.08
2023-05-24T01:20:43.881Z,70.80
2023-05-24T01:23:32.249Z,70.01
2023-05-24T01:26:17.684Z,70.20
2023-05-24T01:28:45.453Z,69.70
2023-05-24T01:31:15.831Z,69.67
2023-05-24T01:33:45.475Z,70.00
2023-05-24T01:36:12.285Z,70.17
2023-05-24T01:38:43.913Z,70.18
2023-05-24T01:41:27.397Z,70.62
2023-05-24T01:44:04.260Z,70.92
2023-05-24T01:46:38.441Z,70.75
2023-05-24T01:49:29.867Z,71.40
2023-05-24T01:52:06.654Z,71.18
2023-05-24T01:54:38.404Z,70.97
2023-05-24T01:57:07.665Z,71.17
2023-05-24T01:59:36.730Z,71.38
2023-05-24T02:02:08.306Z,71.79
2023-05-24T02:04:35.103Z,72.79
2023-05-24T02:07:01.905Z,73.21
2023-05-24T02:09:58.521Z,73.75
2023-05-24T02:12:25.324Z,74.30
2023-05-24T02:14:52.221Z,74.04
2023-05-24T02:17:19.030Z,73.56
2023-05-24T02:19:48.455Z,73.38
2023-05-24T02:22:15.320Z,72.91
2023-05-24T02:24:48.482Z,72.67
2023-05-24T02:27:15.553Z,72.48
2023-05-24T02:29:42.603Z,72.63
2023-05-24T02:32:09.427Z,72.98
2023-05-24T02:34:42.792Z,72.98
2023-05-24T02:37:09.605Z,73.04
2023-05-24T02:39:36.362Z,72.84
2023-05-24T02:42:04.850Z,73.20
2023-05-24T02:44:34.138Z,73.18
2023-05-24T02:47:03.091Z,73.70
2023-05-24T02:49:32.626Z,74.29
2023-05-24T02:52:01.983Z,74.65
2023-05-24T02:54:31.070Z,74.97
2023-05-24T02:56:58.102Z,75.85
2023-05-24T02:59:25.529Z,74.95
2023-05-24T03:01:55.031Z,75.02
2023-05-24T03:04:24.390Z,75.64
2023-05-24T03:06:51.268Z,76.05
2023-05-24T03:09:20.436Z,76.16
2023-05-24T03:11:49.641Z,76.27
2023-05-24T03:14:17.512Z,76.09
2023-05-24T03:16:46.423Z,75.96
2023-05-24T03:19:18.553Z,76.20
2023-05-24T03:21:45.818Z,75.80
2023-05-24T03:24:13.348Z,75.96
2023-05-24T03:26:43.290Z,75.68
2023-05-24T03:29:12.443Z,76.24
2023-05-24T03:31:43.273Z,76.00
2023-05-24T03:34:10.670Z,76.62
2023-05-24T03:36:38.950Z,76.14
2023-05-24T03:39:09.653Z,76.05
2023-05-24T03:41:54.249Z,76.37
2023-05-24T03:44:23.610Z,76.54
2023-05-24T03:46:50.362Z,76.17
2023-05-24T03:49:19.409Z,76.21
2023-05-24T03:51:46.638Z,76.72
2023-05-24T03:54:13.515Z,76.88
2023-05-24T03:56:41.660Z,77.72
2023-05-24T03:59:11.104Z,77.65
2023-05-24T04:01:37.864Z,77.40
2023-05-24T04:04:06.974Z,76.94
2023-05-24T04:06:33.772Z,77.40
2023-05-24T04:09:02.045Z,77.20
2023-05-24T04:11:30.025Z,77.71
2023-05-24T04:14:01.898Z,77.89
2023-05-24T04:16:29.715Z,77.72
2023-05-24T04:18:57.976Z,78.36
2023-05-24T04:21:25.429Z,77.94
2023-05-24T04:23:56.187Z,78.10
2023-05-24T04:26:28.238Z,77.91
2023-05-24T04:29:00.770Z,77.92
2023-05-24T04:31:39.366Z,77.94
2023-05-24T04:34:14.577Z,78.49
2023-05-24T04:36:49.659Z,78.59
2023-05-24T04:39:19.106Z,78.71
2023-05-24T04:41:46.420Z,79.20
2023-05-24T04:44:15.877Z,79.13
2023-05-24T04:46:48.166Z,79.38
2023-05-24T04:49:15.602Z,79.31
2023-05-24T04:51:43.096Z,79.80
2023-05-24T04:54:10.483Z,79.24
2023-05-24T04:56:38.909Z,79.24
2023-05-24T04:59:11.407Z,78.88
2023-05-24T05:01:39.402Z,77.83
2023-05-24T05:04:06.498Z,77.49
2023-05-24T05:06:38.974Z,76.84
2023-05-24T05:09:10.978Z,75.94
2023-05-24T05:11:48.025Z,76.00
2023-05-24T05:14:19.678Z,75.44
2023-05-24T05:16:59.580Z,74.85
2023-05-24T05:19:29.276Z,74.32
2023-05-24T05:21:58.625Z,72.90
2023-05-24T05:24:25.409Z,74.30
2023-05-24T05:26:54.687Z,74.09
2023-05-24T05:29:24.140Z,74.13
2023-05-24T05:31:51.390Z,72.81
2023-05-24T05:34:21.327Z,72.03
2023-05-24T05:36:50.427Z,73.34
2023-05-24T05:39:17.183Z,73.47
2023-05-24T05:41:47.037Z,73.61
2023-05-24T05:44:16.379Z,73.54
2023-05-24T05:46:46.240Z,73.63
2023-05-24T05:49:15.312Z,74.46
2023-05-24T05:51:44.421Z,73.58
2023-05-24T05:54:15.401Z,74.02
2023-05-24T05:56:45.863Z,73.46
2023-05-24T05:59:12.826Z,73.22
2023-05-24T06:01:40.585Z,73.35
2023-05-24T06:04:12.667Z,73.78
2023-05-24T06:06:49.962Z,73.66
2023-05-24T06:09:19.492Z,73.54
2023-05-24T06:11:48.691Z,72.49
2023-05-24T06:14:19.918Z,72.19
2023-05-24T06:16:49.093Z,71.57
2023-05-24T06:19:16.980Z,71.40
2023-05-24T06:21:48.292Z,70.85
2023-05-24T06:24:15.799Z,71.09
2023-05-24T06:26:43.577Z,70.69
2023-05-24T06:29:10.377Z,70.93
2023-05-24T06:31:41.893Z,71.21
2023-05-24T06:34:08.844Z,70.72
2023-05-24T06:36:43.365Z,70.01
2023-05-24T06:39:11.110Z,69.93
2023-05-24T06:41:41.291Z,70.08
2023-05-24T06:44:12.828Z,69.97
2023-05-24T06:46:42.801Z,69.59
2023-05-24T06:49:09.629Z,68.99
2023-05-24T06:51:38.464Z,69.45
2023-05-24T06:54:05.830Z,69.34
2023-05-24T06:56:37.450Z,69.41
2023-05-24T06:59:04.339Z,68.65
2023-05-24T07:01:31.237Z,69.17
2023-05-24T07:03:58.071Z,68.41
2023-05-24T07:06:25.248Z,68.71
2023-05-24T07:08:51.997Z,68.70
2023-05-24T07:11:21.745Z,68.53
2023-05-24T07:13:51.504Z,68.25
2023-05-24T07:16:18.350Z,68.26
2023-05-24T07:18:47.868Z,67.63
2023-05-24T07:21:14.696Z,67.23
2023-05-24T07:23:43.793Z,67.59
2023-05-24T07:26:13.172Z,67.64
2023-05-24T07:28:40.540Z,67.73
2023-05-24T07:31:11.504Z,67.19
2023-05-24T07:33:38.565Z,66.32
2023-05-24T07:36:07.121Z,66.80
2023-05-24T07:38:39.144Z,66.58
2023-05-24T07:41:07.161Z,66.37
2023-05-24T07:43:39.827Z,66.56
2023-05-24T07:46:10.474Z,66.81
2023-05-24T07:48:37.562Z,67.06
2023-05-24T07:51:06.827Z,66.39
2023-05-24T07:53:35.072Z,66.49
2023-05-24T07:56:01.877Z,66.13
2023-05-24T07:58:33.340Z,66.63
2023-05-24T08:01:02.372Z,66.49
2023-05-24T08:03:30.013Z,65.84
2023-05-24T08:05:57.548Z,66.13
2023-05-24T08:08:29.683Z,64.88
2023-05-24T08:10:58.955Z,65.31
2023-05-24T08:13:25.860Z,65.64
2023-05-24T08:15:52.731Z,64.88
2023-05-24T08:18:22.008Z,64.38
2023-05-24T08:20:53.426Z,63.86
2023-05-24T08:23:20.326Z,63.67
2023-05-24T08:25:47.619Z,63.71
2023-05-24T08:28:16.538Z,62.10
2023-05-24T08:30:49.718Z,62.67
2023-05-24T08:33:16.827Z,63.02
2023-05-24T08:35:46.612Z,62.28
2023-05-24T08:38:13.349Z,63.53
2023-05-24T08:40:40.187Z,62.57
2023-05-24T08:43:12.357Z,61.40
2023-05-24T08:45:39.714Z,61.43
2023-05-24T08:48:07.658Z,61.69
2023-05-24T08:50:35.152Z,61.82
2023-05-24T08:53:06.789Z,62.11
2023-05-24T08:55:36.306Z,61.52
2023-05-24T08:58:05.795Z,62.16
2023-05-24T09:00:35.041Z,62.14
2023-05-24T09:03:04.124Z,61.28
2023-05-24T09:05:30.884Z,60.51
2023-05-24T09:08:00.164Z,60.36
2023-05-24T09:12:57.651Z,59.82
2023-05-24T09:15:27.069Z,59.34
2023-05-24T09:17:56.105Z,58.20
2023-05-24T09:20:23.311Z,58.42
2023-05-24T09:22:53.824Z,58.07
2023-05-24T09:25:22.891Z,57.82
2023-05-24T09:27:56.563Z,58.27
2023-05-24T09:30:25.897Z,58.10
2023-05-24T09:33:00.861Z,57.54
2023-05-24T09:35:28.468Z,56.53
2023-05-24T09:38:00.663Z,57.07
2023-05-24T09:40:34.701Z,57.33
2023-05-24T09:43:09.996Z,57.51
2023-05-24T09:45:46.771Z,56.44
2023-05-24T09:48:20.232Z,56.14
2023-05-24T09:51:03.300Z,55.33
2023-05-24T09:53:30.653Z,56.35
2023-05-24T09:55:57.449Z,54.67
2023-05-24T09:58:30.264Z,55.20
2023-05-24T10:01:05.629Z,54.23
2023-05-24T10:03:32.640Z,54.34
2023-05-24T10:05:59.991Z,54.94
2023-05-24T10:08:32.029Z,53.63
2023-05-24T10:10:58.990Z,53.50
2023-05-24T10:13:26.791Z,53.06
2023-05-24T10:15:53.531Z,53.02
2023-05-24T10:18:22.728Z,52.45
2023-05-24T10:20:52.321Z,52.04
2023-05-24T10:23:22.102Z,50.16
2023-05-24T10:26:20.114Z,50.71
2023-05-24T10:28:52.564Z,51.65
2023-05-24T10:31:28.685Z,50.77
2023-05-24T10:34:06.647Z,50.82
2023-05-24T10:36:35.385Z,51.03
2023-05-24T10:39:03.641Z,49.19
2023-05-24T10:41:42.223Z,48.67
2023-05-24T10:44:21.335Z,46.67
2023-05-24T10:47:06.872Z,45.29
2023-05-24T10:49:36.271Z,46.48
2023-05-24T10:52:08.650Z,47.11
2023-05-24T10:54:49.684Z,48.28
2023-05-24T10:57:24.652Z,47.61
2023-05-24T10:59:57.290Z,46.36
2023-05-24T11:02:28.438Z,45.96
2023-05-24T11:04:56.595Z,45.56
2023-05-24T11:07:23.981Z,44.50
2023-05-24T11:09:59.867Z,44.93
2023-05-24T11:12:31.678Z,45.29
2023-05-24T11:15:02.874Z,45.12
2023-05-24T11:17:31.918Z,43.65
2023-05-24T11:20:01.223Z,45.04
2023-05-24T11:22:31.710Z,43.96
2023-05-24T11:25:06.048Z,44.38
2023-05-24T11:27:35.271Z,44.66
2023-05-24T11:30:04.471Z,44.76
2023-05-24T11:32:33.614Z,43.54
2023-05-24T11:35:00.821Z,42.09
2023-05-24T11:37:38.602Z,42.67
2023-05-24T11:40:13.252Z,41.86
2023-05-24T11:42:44.425Z,40.78
2023-05-24T11:45:11.621Z,40.56
2023-05-24T11:47:38.801Z,39.14
2023-05-24T11:50:08.889Z,40.57
2023-05-24T11:52:42.546Z,41.60
2023-05-24T11:55:16.537Z,43.14
2023-05-24T11:57:52.177Z,41.90
2023-05-24T12:00:28.566Z,39.45
2023-05-24T12:03:07.335Z,41.68
2023-05-24T12:05:36.907Z,41.45
2023-05-24T12:08:12.731Z,41.64
2023-05-24T12:10:43.713Z,42.15
2023-05-24T12:13:23.218Z,41.93
2023-05-24T12:15:55.623Z,39.69
2023-05-24T12:18:25.134Z,38.06
2023-05-24T12:20:55.035Z,39.70
2023-05-24T12:23:32.907Z,39.67
2023-05-24T12:26:00.545Z,40.30
2023-05-24T12:28:28.647Z,40.09
2023-05-24T12:30:55.838Z,39.46
2023-05-24T12:33:23.630Z,38.12
2023-05-24T12:35:56.458Z,38.50
2023-05-24T12:38:25.851Z,36.67
2023-05-24T12:41:08.171Z,37.06
2023-05-24T12:43:44.476Z,34.19
2023-05-24T12:46:11.503Z,33.77
2023-05-24T12:48:40.602Z,34.07
2023-05-24T12:51:10.061Z,35.88
2023-05-24T12:53:39.032Z,36.55
2023-05-24T12:56:06.566Z,38.01
2023-05-24T12:58:38.194Z,36.04
2023-05-24T13:01:05.249Z,35.35
2023-05-24T13:03:32.043Z,34.90
2023-05-24T13:06:01.887Z,32.71
2023-05-24T13:08:33.925Z,33.50
2023-05-24T13:11:00.749Z,31.45
2023-05-24T13:13:28.966Z,31.03
2023-05-24T13:15:56.072Z,30.37
2023-05-24T13:18:26.319Z,29.87
2023-05-24T13:20:55.603Z,29.95
2023-05-24T13:23:24.862Z,31.89
2023-05-24T13:25:51.759Z,31.04
2023-05-24T13:28:23.260Z,31.04
2023-05-24T13:30:52.583Z,29.52
2023-05-24T13:33:19.427Z,29.70
2023-05-24T13:35:46.338Z,27.88
2023-05-24T13:38:13.469Z,25.67
2023-05-24T13:40:41.884Z,26.36
2023-05-24T13:43:11.234Z,25.23
2023-05-24T13:45:38.022Z,26.20
2023-05-24T13:48:07.299Z,24.46
2023-05-24T13:50:35.295Z,24.91
2023-05-24T13:53:04.844Z,25.93
2023-05-24T13:55:39.084Z,28.84
2023-05-24T13:58:08.868Z,27.48
2023-05-24T14:00:37.887Z,27.37
2023-05-24T14:03:07.286Z,26.08
2023-05-24T14:05:37.761Z,26.30
2023-05-24T14:08:06.790Z,26.90
2023-05-24T14:10:39.475Z,24.10
2023-05-24T14:13:32.163Z,25.63
2023-05-24T14:16:00.042Z,25.48
2023-05-24T14:18:27.206Z,25.34
2023-05-24T14:20:54.134Z,24.07
2023-05-24T14:23:23.298Z,25.27
2023-05-24T14:25:55.038Z,25.95
2023-05-24T14:28:26.572Z,24.94
2023-05-24T14:30:53.907Z,25.49
2023-05-24T14:33:20.855Z,24.59
2023-05-24T14:35:50.364Z,24.26
2023-05-24T14:38:17.255Z,24.57
2023-05-24T14:40:47.437Z,24.01
2023-05-24T14:43:14.568Z,24.42
2023-05-24T14:45:44.056Z,23.87
2023-05-24T14:48:13.652Z,25.11
2023-05-24T14:50:44.200Z,25.14
2023-05-24T14:53:13.790Z,25.66
2023-05-24T14:55:42.767Z,25.72
2023-05-24T14:58:15.204Z,24.70
2023-05-24T15:00:45.330Z,24.20
2023-05-24T15:03:15.150Z,24.48
2023-05-24T15:05:47.254Z,24.71
2023-05-24T15:08:14.181Z,25.75
2023-05-24T15:10:41.257Z,27.35
2023-05-24T15:13:08.336Z,26.91
2023-05-24T15:15:35.109Z,26.33
2023-05-24T15:18:04.625Z,25.93
2023-05-24T15:20:36.548Z,25.79
2023-05-24T15:23:03.937Z,25.14
2023-05-24T15:25:31.089Z,25.62
2023-05-24T15:27:58.173Z,25.79
2023-05-24T15:30:25.032Z,25.97
2023-05-24T15:32:51.958Z,26.84
2023-05-24T15:35:21.709Z,26.89
2023-05-24T15:37:53.516Z,27.19
2023-05-24T15:40:24.504Z,28.90
2023-05-24T15:42:54.108Z,28.99
2023-05-24T15:45:21.447Z,29.67
2023-05-24T15:47:48.330Z,30.74
2023-05-24T15:50:15.434Z,30.53
2023-05-24T15:52:42.553Z,30.58
2023-05-24T15:55:12.007Z,30.45
2023-05-24T15:57:38.790Z,31.00
2023-05-24T16:00:08.818Z,32.01
2023-05-24T16:02:44.205Z,33.26
2023-05-24T16:05:11.797Z,33.12
2023-05-24T16:07:38.610Z,33.29
2023-05-24T16:10:08.327Z,33.09
2023-05-24T16:12:37.599Z,33.33
2023-05-24T16:15:11.783Z,33.19
2023-05-24T16:17:38.621Z,34.40
2023-05-24T16:20:06.441Z,34.48
2023-05-24T16:22:35.082Z,34.71
2023-05-24T16:25:02.094Z,35.76
2023-05-24T16:27:28.919Z,37.01
2023-05-24T16:29:55.852Z,36.71
2023-05-24T16:32:27.480Z,37.26
2023-05-24T16:34:57.530Z,38.67
2023-05-24T16:37:24.388Z,38.90
2023-05-24T16:39:55.858Z,38.88
2023-05-24T16:42:25.297Z,40.03
2023-05-24T16:44:54.652Z,40.55
2023-05-24T16:47:23.967Z,41.61
2023-05-24T16:49:50.915Z,40.49
2023-05-24T16:52:19.867Z,41.13
2023-05-24T16:54:49.103Z,40.32
2023-05-24T16:57:15.954Z,41.38
2023-05-24T16:59:45.733Z,41.29
2023-05-24T17:02:16.766Z,41.62
2023-05-24T17:04:45.763Z,41.88
2023-05-24T17:07:12.588Z,43.25
2023-05-24T17:09:41.850Z,42.40
2023-05-24T17:12:08.762Z,43.29
2023-05-24T17:14:38.467Z,44.09
2023-05-24T17:17:07.991Z,45.96
2023-05-24T17:19:41.015Z,46.09
2023-05-24T17:22:08.742Z,47.54
2023-05-24T17:24:35.700Z,46.66
2023-05-24T17:27:02.854Z,47.42
2023-05-24T17:29:30.179Z,48.20
2023-05-24T17:31:59.114Z,47.90
2023-05-24T17:34:29.680Z,49.41
2023-05-24T17:36:58.677Z,49.27
2023-05-24T17:39:28.614Z,51.09
2023-05-24T17:41:55.545Z,51.32
2023-05-24T17:44:22.302Z,51.07
2023-05-24T17:46:49.218Z,52.21
2023-05-24T17:49:16.666Z,53.27
2023-05-24T17:51:49.648Z,53.21
2023-05-24T17:54:19.282Z,53.12
2023-05-24T17:56:49.214Z,53.08
2023-05-24T17:59:16.018Z,52.06
2023-05-24T18:01:46.945Z,53.14
2023-05-24T18:04:14.445Z,52.24
2023-05-24T18:06:41.838Z,51.73
2023-05-24T18:09:11.706Z,51.87
2023-05-24T18:11:39.222Z,52.11
2023-05-24T18:14:09.045Z,52.17
2023-05-24T18:16:36.016Z,52.64
2023-05-24T18:19:05.391Z,52.51
2023-05-24T18:21:34.478Z,52.19
2023-05-24T18:24:03.933Z,52.84
2023-05-24T18:26:30.814Z,53.42
2023-05-24T18:28:57.664Z,54.09
2023-05-24T18:31:29.250Z,55.72
2023-05-24T18:33:56.177Z,54.83
2023-05-24T18:36:23.467Z,55.30
2023-05-24T18:38:52.721Z,54.95
2023-05-24T18:41:22.160Z,54.82
2023-05-24T18:43:51.410Z,54.74
2023-05-24T18:46:18.287Z,54.51
2023-05-24T18:48:47.998Z,54.86
2023-05-24T18:51:19.952Z,55.47
2023-05-24T18:53:52.062Z,55.58
2023-05-24T18:56:18.725Z,56.17
2023-05-24T18:58:49.673Z,55.46
2023-05-24T19:01:18.073Z,55.57
2023-05-24T19:03:45.288Z,55.78
2023-05-24T19:06:14.580Z,55.65
2023-05-24T19:08:43.622Z,55.91
2023-05-24T19:11:11.338Z,57.52
2023-05-24T19:13:39.986Z,57.80
2023-05-24T19:16:09.441Z,57.59
2023-05-24T19:18:39.410Z,56.83
2023-05-24T19:21:09.151Z,57.52
2023-05-24T19:23:36.056Z,57.99
2023-05-24T19:26:03.896Z,58.17
2023-05-24T19:28:31.227Z,58.61
2023-05-24T19:31:02.489Z,58.19
2023-05-24T19:33:29.469Z,57.95
2023-05-24T19:35:59.094Z,58.23
2023-05-24T19:38:26.242Z,58.09
2023-05-24T19:40:53.089Z,58.49
2023-05-24T19:43:19.955Z,59.35
2023-05-24T19:45:48.212Z,58.43
2023-05-24T19:48:15.014Z,58.97
2023-05-24T19:50:41.844Z,59.91
2023-05-24T19:53:13.069Z,59.23
2023-05-24T19:55:44.755Z,59.38
2023-05-24T19:58:16.818Z,59.48
2023-05-24T20:00:48.104Z,59.47
2023-05-24T20:03:15.093Z,59.64
2023-05-24T20:05:42.112Z,59.48
2023-05-24T20:08:11.592Z,59.21
2023-05-24T20:10:39.011Z,59.11
2023-05-24T20:13:06.224Z,59.49
2023-05-24T20:15:33.393Z,59.70
2023-05-24T20:18:00.305Z,60.11
2023-05-24T20:20:27.236Z,59.99
2023-05-24T20:22:54.106Z,59.88
2023-05-24T20:25:21.148Z,59.58
2023-05-24T20:27:50.720Z,60.10
2023-05-24T20:30:17.945Z,60.11
2023-05-24T20:32:47.812Z,59.98
2023-05-24T20:35:14.673Z,60.23
2023-05-24T20:37:43.714Z,60.29
2023-05-24T20:40:25.049Z,60.44
2023-05-24T20:42:55.453Z,60.50
2023-05-24T20:45:24.555Z,60.62
2023-05-24T20:47:54.544Z,60.52
2023-05-24T20:50:21.723Z,60.39
2023-05-24T20:52:53.266Z,61.35
2023-05-24T20:55:23.111Z,61.00
2023-05-24T20:57:51.399Z,60.90
2023-05-24T21:00:18.617Z,61.30
2023-05-24T21:02:45.874Z,61.00
2023-05-24T21:05:12.690Z,61.09
2023-05-24T21:07:44.372Z,61.38
2023-05-24T21:10:17.188Z,61.43
2023-05-24T21:12:44.419Z,61.47
2023-05-24T21:15:13.823Z,61.46
2023-05-24T21:17:43.246Z,61.68
2023-05-24T21:20:13.561Z,61.38
2023-05-24T21:22:40.711Z,61.47
2023-05-24T21:25:11.280Z,61.58
2023-05-24T21:27:40.486Z,61.62
2023-05-24T21:30:09.947Z,61.70
2023-05-24T21:32:39.130Z,62.04
2023-05-24T21:35:09.334Z,62.23
2023-05-24T21:37:36.092Z,62.75
2023-05-24T21:40:06.265Z,62.80
2023-05-24T21:42:33.018Z,62.98
2023-05-24T21:45:02.396Z,62.36
2023-05-24T21:47:31.557Z,62.71
2023-05-24T21:50:00.990Z,62.81
2023-05-24T21:52:28.154Z,62.84
2023-05-24T21:54:55.013Z,63.28
2023-05-24T21:57:22.006Z,63.94
2023-05-24T21:59:54.330Z,63.83
2023-05-24T22:02:23.453Z,63.94
2023-05-24T22:04:52.871Z,64.40
2023-05-24T22:07:24.436Z,63.75
2023-05-24T22:09:51.250Z,63.91
2023-05-24T22:12:18.204Z,63.86
2023-05-24T22:14:45.005Z,64.08
2023-05-24T22:17:14.474Z,63.82
2023-05-24T22:19:44.750Z,64.00
2023-05-24T22:22:12.548Z,64.18
2023-05-24T22:24:39.407Z,64.05
2023-05-24T22:27:13.921Z,64.65
2023-05-24T22:29:43.653Z,64.22
2023-05-24T22:32:10.685Z,64.35
2023-05-24T22:34:40.353Z,64.41
2023-05-24T22:37:07.757Z,64.53
2023-05-24T22:39:37.413Z,64.47
2023-05-24T22:42:09.054Z,64.37
2023-05-24T22:44:38.654Z,64.46
2023-05-24T22:47:08.734Z,64.80
2023-05-24T22:49:35.882Z,65.00
2023-05-24T22:52:02.768Z,64.67
2023-05-24T22:54:29.628Z,64.66
2023-05-24T22:56:56.762Z,65.17
2023-05-24T22:59:26.064Z,65.57
2023-05-24T23:01:52.852Z,65.85
2023-05-24T23:04:21.805Z,65.45
2023-05-24T23:06:53.531Z,65.46
2023-05-24T23:09:34.279Z,65.63
2023-05-24T23:12:08.177Z,65.72
2023-05-24T23:14:38.938Z,65.41
2023-05-24T23:17:07.367Z,65.79
2023-05-24T23:19:42.103Z,65.89
2023-05-24T23:22:18.416Z,65.87
2023-05-24T23:24:47.240Z,65.96
2023-05-24T23:27:14.114Z,65.99
2023-05-24T23:29:43.191Z,66.05
2023-05-24T23:32:10.077Z,65.83
2023-05-24T23:34:37.381Z,66.23
2023-05-24T23:37:05.038Z,65.77
2023-05-24T23:39:31.852Z,65.79
2023-05-24T23:42:02.912Z,65.86
2023-05-24T23:44:32.202Z,65.45
2023-05-24T23:46:59.114Z,65.56
2023-05-24T23:49:26.175Z,64.97
2023-05-24T23:51:53.076Z,64.56
2023-05-24T23:54:22.395Z,64.19
2023-05-24T23:56:51.491Z,64.06
2023-05-24T23:59:21.332Z,64.10
